Time;durP1;ratioP1;P1;durP2;ratioP2;P2;SDS_P1;SDS_P2;PMS_P1;PMS_P2;Temp;Humidity;BMP_temperature;BMP_pressure;BME280_temperature;BME280_humidity;BME280_pressure;Samples;Min_cycle;Max_cycle;Signal;HPM_P1;HPM_P2
2021/10/19 00:01:32;;;;;;;4.50;2.22;;;;;;;5.18;67.45;99099.41;4995203;28;20034;-85
2021/10/19 00:03:58;;;;;;;7.40;2.55;;;;;;;5.02;67.10;99070.81;5010449;28;20039;-89
2021/10/19 00:06:25;;;;;;;5.45;3.20;;;;;;;5.32;67.58;99122.06;5027381;28;20108;-87
2021/10/19 00:08:51;;;;;;;10.23;2.67;;;;;;;5.01;67.14;99071.91;4995186;28;20438;-88
2021/10/19 00:11:17;;;;;;;7.32;2.80;;;;;;;5.16;67.48;99109.72;4995594;28;20044;-88
2021/10/19 00:13:44;;;;;;;6.60;2.10;;;;;;;5.15;67.28;99097.25;5011209;28;20089;-89
2021/10/19 00:16:12;;;;;;;5.40;2.22;;;;;;;5.39;67.02;99130.66;4993859;28;20053;-87
2021/10/19 00:18:38;;;;;;;;;;;;;;;5.44;67.47;99134.44;4994076;28;20117;-86
2021/10/19 00:21:05;;;;;;;6.35;2.20;;;;;;;5.20;67.63;99110.78;5009119;28;19929;-86
2021/10/19 00:23:31;;;;;;;6.55;2.25;;;;;;;5.18;67.33;99118.38;4992223;28;20165;-87
2021/10/19 00:25:58;;;;;;;9.25;2.13;;;;;;;5.12;67.79;99093.22;4994833;28;20125;-86
2021/10/19 00:28:24;;;;;;;6.83;3.03;;;;;;;5.03;67.34;99072.41;4995054;28;20046;-85
2021/10/19 00:30:52;;;;;;;3.20;1.75;;;;;;;5.44;67.33;99124.41;5025820;28;20042;-86
2021/10/19 00:33:18;;;;;;;6.38;2.08;;;;;;;5.11;67.24;99099.72;5025015;28;20038;-86
2021/10/19 00:35:45;;;;;;;5.32;2.25;;;;;;;5.16;67.54;99109.72;4990606;28;20129;-87
2021/10/19 00:38:11;;;;;;;5.80;1.90;;;;;;;4.95;67.37;99066.50;4990752;28;20121;-87
2021/10/19 00:40:37;;;;;;;4.40;1.92;;;;;;;5.18;67.45;99111.06;5009205;28;20054;-85
2021/10/19 00:43:06;;;;;;;4.93;1.80;;;;;;;5.33;67.78;99128.28;4993988;28;20104;-85
2021/10/19 00:45:34;;;;;;;5.45;1.90;;;;;;;5.53;66.74;99140.88;4993699;28;20126;-86
2021/10/19 00:48:01;;;;;;;10.65;2.47;;;;;;;5.44;66.94;99118.19;4997652;28;20046;-86
2021/10/19 00:50:27;;;;;;;5.13;2.83;;;;;;;5.39;67.26;99117.13;4975367;28;20098;-87
2021/10/19 00:52:59;;;;;;;7.17;2.50;;;;;;;5.68;67.16;99142.66;4991302;28;20073;-86
2021/10/19 00:55:26;;;;;;;3.47;2.20;;;;;;;5.53;67.04;99130.84;4994994;28;20050;-85
2021/10/19 00:57:52;;;;;;;5.65;2.20;;;;;;;5.67;66.34;99143.75;4994968;28;20050;-86
2021/10/19 01:00:19;;;;;;;7.72;2.35;;;;;;;5.36;66.69;99095.19;4976765;28;20042;-86
2021/10/19 01:02:47;;;;;;;;;;;;;;;5.68;66.90;99148.88;4994774;28;20064;-84
2021/10/19 01:05:13;;;;;;;;;;;;;;;5.54;67.07;99143.31;5026312;28;20008;-87
2021/10/19 01:07:42;;;;;;;6.63;2.67;;;;;;;5.28;67.40;99110.16;4992892;28;19922;-86
2021/10/19 01:10:09;;;;;;;10.68;2.30;;;;;;;5.05;67.31;99083.78;5008842;28;20053;-85
2021/10/19 01:12:36;;;;;;;4.55;2.30;;;;;;;5.07;67.65;99092.47;5009270;28;20039;-86
2021/10/19 01:15:14;;;;;;;8.10;2.55;;;;;;;5.12;67.57;99104.03;4992664;28;20043;-86
2021/10/19 01:17:47;;;;;;;7.30;2.83;;;;;;;5.17;67.58;99104.03;5004565;28;20046;-85
2021/10/19 01:20:16;;;;;;;13.60;3.35;;;;;;;5.23;67.81;99126.47;4993486;28;20114;-86
2021/10/19 01:22:42;;;;;;;5.90;2.60;;;;;;;5.03;67.85;99103.03;4993700;28;20038;-86
2021/10/19 01:25:15;;;;;;;5.28;2.80;;;;;;;5.35;68.28;99148.59;5008238;28;20057;-85
2021/10/19 01:27:59;;;;;;;3.42;1.98;;;;;;;5.08;67.91;99116.53;5016663;28;20117;-86
2021/10/19 01:30:27;;;;;;;4.40;2.15;;;;;;;5.15;67.98;99133.28;5001474;28;20042;-85
2021/10/19 01:32:54;;;;;;;3.83;2.08;;;;;;;5.21;68.12;99142.22;4995039;28;20031;-85
2021/10/19 01:35:37;;;;;;;4.85;2.03;;;;;;;5.32;67.90;99148.34;4993716;28;20105;-86
2021/10/19 01:38:05;;;;;;;3.08;2.00;;;;;;;5.06;68.03;99101.66;4994823;28;20047;-88
2021/10/19 01:40:32;;;;;;;7.82;2.65;;;;;;;5.09;68.32;99101.09;5025610;28;20132;-85
2021/10/19 01:42:58;;;;;;;6.53;2.33;;;;;;;5.50;68.01;99160.44;4993618;28;20046;-86
2021/10/19 01:45:25;;;;;;;4.10;2.08;;;;;;;5.19;68.71;99107.25;4993839;28;20052;-86
2021/10/19 01:47:52;;;;;;;6.40;2.45;;;;;;;5.41;67.81;99139.34;4991892;28;20096;-86
2021/10/19 01:50:19;;;;;;;4.35;2.22;;;;;;;5.46;67.81;99143.09;5024944;28;20046;-86
2021/10/19 01:52:46;;;;;;;5.25;2.45;;;;;;;5.54;67.89;99170.41;4992021;28;20081;-85
2021/10/19 01:55:13;;;;;;;6.90;2.50;;;;;;;5.41;68.07;99155.59;4993349;28;20053;-87
2021/10/19 01:57:39;;;;;;;4.50;2.00;;;;;;;5.31;67.57;99134.00;4991681;28;20088;-88
2021/10/19 02:00:08;;;;;;;3.42;2.30;;;;;;;5.40;67.04;99156.69;5003939;28;20512;-87
2021/10/19 02:02:40;;;;;;;3.33;2.05;;;;;;;5.57;67.83;99179.91;5005618;28;20602;-86
2021/10/19 02:05:11;;;;;;;5.78;2.30;;;;;;;5.10;67.55;99140.63;4993257;28;20034;-86
2021/10/19 02:07:37;;;;;;;3.88;2.40;;;;;;;5.30;67.91;99166.81;4991582;28;20053;-85
2021/10/19 02:10:08;;;;;;;4.05;2.50;;;;;;;5.25;67.61;99158.72;5013722;28;20032;-87
2021/10/19 02:12:41;;;;;;;3.72;2.38;;;;;;;5.07;67.87;99128.47;4992878;28;20180;-87
2021/10/19 02:15:09;;;;;;;6.75;2.22;;;;;;;5.50;68.22;99192.97;5004592;28;20046;-87
2021/10/19 02:17:36;;;;;;;3.65;2.25;;;;;;;5.28;67.64;99158.94;5010931;28;20049;-86
2021/10/19 02:20:05;;;;;;;3.60;2.25;;;;;;;5.46;68.77;99191.88;5015060;28;20034;-86
2021/10/19 02:22:32;;;;;;;4.05;2.65;;;;;;;5.30;68.53;99150.56;5009167;28;20069;-86
2021/10/19 02:25:00;;;;;;;3.47;2.40;;;;;;;5.53;67.66;99201.34;4992547;28;20034;-85
2021/10/19 02:27:27;;;;;;;3.13;2.17;;;;;;;5.50;67.90;99196.47;4990980;28;20421;-85
2021/10/19 02:29:53;;;;;;;4.72;2.45;;;;;;;5.51;67.46;99186.44;4991625;28;20117;-85
2021/10/19 02:32:19;;;;;;;4.10;2.45;;;;;;;5.58;67.42;99201.28;4991327;28;20133;-86
2021/10/19 02:34:56;;;;;;;;;;;;;;;5.57;67.62;99199.69;4977094;28;20042;-87
2021/10/19 02:37:25;;;;;;;7.03;3.35;;;;;;;5.55;66.92;99204.56;4992710;28;19921;-86
2021/10/19 02:39:51;;;;;;;5.50;2.58;;;;;;;5.37;67.29;99178.16;4991174;28;20070;-85
2021/10/19 02:42:18;;;;;;;3.72;2.00;;;;;;;5.29;67.81;99171.41;5008577;28;20050;-85
2021/10/19 02:44:44;;;;;;;5.60;2.20;;;;;;;5.41;67.70;99206.31;5023450;28;20474;-86
2021/10/19 02:47:12;;;;;;;3.58;2.20;;;;;;;5.34;68.32;99200.38;4992585;28;20500;-86
2021/10/19 02:49:38;;;;;;;3.53;2.05;;;;;;;5.29;68.40;99200.41;4991717;28;20660;-88
2021/10/19 02:52:05;;;;;;;6.00;2.58;;;;;;;4.78;68.00;99131.09;5013330;28;20392;-85
2021/10/19 02:54:34;;;;;;;3.83;2.42;;;;;;;5.20;67.63;99192.06;5009510;28;20428;-85
2021/10/19 02:57:00;;;;;;;3.53;2.03;;;;;;;5.30;67.85;99216.41;4988037;28;20073;-85
2021/10/19 02:59:27;;;;;;;4.47;2.15;;;;;;;5.11;67.69;99178.31;4975220;28;20049;-87
2021/10/19 03:01:53;;;;;;;4.45;2.42;;;;;;;5.16;67.54;99188.28;5019560;28;20077;-86
2021/10/19 03:04:19;;;;;;;5.00;2.20;;;;;;;5.30;67.39;99200.16;4994058;28;20035;-87
2021/10/19 03:06:46;;;;;;;6.38;2.20;;;;;;;5.09;66.78;99174.25;4976732;28;20038;-86
2021/10/19 03:09:12;;;;;;;4.95;2.20;;;;;;;5.23;67.16;99201.53;5007343;28;20108;-86
2021/10/19 03:11:38;;;;;;;8.00;2.38;;;;;;;4.84;66.99;99157.06;4990319;28;20089;-86
2021/10/19 03:14:04;;;;;;;3.63;2.10;;;;;;;5.01;67.40;99202.75;4999790;28;20038;-88
2021/10/19 03:16:30;;;;;;;3.50;2.20;;;;;;;4.90;67.26;99190.31;5018207;28;20423;-87
2021/10/19 03:18:56;;;;;;;7.60;3.03;;;;;;;5.02;67.59;99206.25;5002780;28;20401;-87
2021/10/19 03:21:26;;;;;;;4.32;2.17;;;;;;;5.13;67.32;99216.78;4999796;28;20158;-87
2021/10/19 03:23:52;;;;;;;4.75;2.20;;;;;;;5.02;66.84;99200.84;5018111;28;20044;-86
2021/10/19 03:26:19;;;;;;;3.15;2.03;;;;;;;4.89;67.15;99178.69;5014269;28;20522;-87
2021/10/19 03:28:45;;;;;;;4.32;2.05;;;;;;;5.25;66.25;99240.00;5030857;28;20117;-87
2021/10/19 03:31:12;;;;;;;3.45;2.22;;;;;;;5.23;66.73;99237.59;4996280;28;20038;-86
2021/10/19 03:33:38;;;;;;;4.80;2.13;;;;;;;5.11;65.44;99239.81;4995575;28;20546;-86
2021/10/19 03:36:06;;;;;;;7.05;2.10;;;;;;;5.07;64.91;99223.31;4995510;28;20042;-87
2021/10/19 03:38:39;;;;;;;3.47;1.85;;;;;;;4.97;64.02;99209.81;5011063;28;20068;-87
2021/10/19 03:41:06;;;;;;;4.05;1.90;;;;;;;4.85;63.49;99185.75;5027008;28;20042;-87
2021/10/19 03:43:33;;;;;;;3.92;1.52;;;;;;;4.76;62.83;99190.13;4997149;28;20099;-87
2021/10/19 03:46:00;;;;;;;7.18;1.80;;;;;;;5.06;61.63;99253.38;5003822;28;20014;-86
2021/10/19 03:48:27;;;;;;;18.17;1.97;;;;;;;4.84;61.19;99213.13;5026798;28;20049;-88
2021/10/19 03:51:00;;;;;;;;;;;;;;;5.02;61.10;99246.91;5000216;28;20415;-89
2021/10/19 03:53:27;;;;;;;4.78;1.70;;;;;;;4.87;61.82;99226.13;4995138;28;20310;-87
2021/10/19 03:55:55;;;;;;;4.10;2.13;;;;;;;5.09;61.94;99244.69;4994015;28;20050;-86
2021/10/19 03:58:22;;;;;;;3.63;1.60;;;;;;;5.02;61.85;99246.91;4978321;28;20046;-87
2021/10/19 04:00:48;;;;;;;4.20;1.73;;;;;;;4.93;61.98;99238.53;4993916;28;20046;-87
2021/10/19 04:03:15;;;;;;;2.63;1.60;;;;;;;4.78;61.84;99190.66;4995131;28;20038;-88
2021/10/19 04:05:42;;;;;;;6.43;2.23;;;;;;;4.89;62.95;99202.25;5010476;28;20042;-87
2021/10/19 04:08:08;;;;;;;7.57;2.15;;;;;;;4.95;62.71;99201.94;4994049;28;20049;-87
2021/10/19 04:10:33;;;;;;;4.22;2.10;;;;;;;5.06;62.61;99215.44;5004900;28;20034;-89
2021/10/19 04:13:01;;;;;;;3.92;1.92;;;;;;;5.24;61.74;99239.19;5013554;28;20042;-86
2021/10/19 04:15:27;;;;;;;3.60;1.75;;;;;;;4.87;62.83;99205.25;4994923;28;20433;-89
2021/10/19 04:17:55;;;;;;;12.77;2.25;;;;;;;5.04;63.09;99199.47;4977557;28;20077;-88
2021/10/19 04:20:21;;;;;;;4.85;2.30;;;;;;;5.31;62.61;99228.06;4993393;28;20070;-89
2021/10/19 04:22:47;;;;;;;8.00;2.70;;;;;;;5.53;62.86;99258.28;5010035;28;20045;-83
2021/10/19 04:25:13;;;;;;;6.90;2.50;;;;;;;5.42;62.71;99243.97;4998774;28;20045;-78
2021/10/19 04:27:40;;;;;;;4.70;2.30;;;;;;;5.37;62.84;99262.19;5014843;28;20045;-81
2021/10/19 04:30:06;;;;;;;5.88;2.70;;;;;;;5.52;62.89;99275.63;5006022;28;20046;-80
2021/10/19 04:32:32;;;;;;;3.28;2.20;;;;;;;5.56;62.98;99267.72;4995096;28;20419;-80
2021/10/19 04:34:59;;;;;;;4.15;2.70;;;;;;;5.70;62.44;99262.50;4993964;28;20133;-79
2021/10/19 04:37:26;;;;;;;5.43;2.55;;;;;;;5.65;62.47;99260.63;4994292;28;20042;-80
2021/10/19 04:39:52;;;;;;;6.50;2.55;;;;;;;5.76;62.13;99264.91;4994733;28;20137;-87
2021/10/19 04:42:18;;;;;;;3.63;2.13;;;;;;;6.01;61.83;99287.53;4993770;28;20117;-78
2021/10/19 04:44:46;;;;;;;6.05;2.50;;;;;;;5.93;61.69;99274.56;4993281;28;20579;-80
2021/10/19 04:47:17;;;;;;;4.47;2.45;;;;;;;5.84;61.13;99275.16;4994175;28;20069;-81
2021/10/19 04:49:43;;;;;;;5.45;3.15;;;;;;;5.79;61.53;99288.72;4994250;28;20042;-85
2021/10/19 04:52:11;;;;;;;7.88;2.88;;;;;;;5.55;62.60;99280.47;4994160;28;20046;-80
2021/10/19 04:54:37;;;;;;;5.75;2.55;;;;;;;5.48;62.57;99292.75;4993847;28;20046;-80
2021/10/19 04:57:03;;;;;;;5.07;2.90;;;;;;;5.41;63.16;99282.19;4993994;28;20038;-80
2021/10/19 04:59:29;;;;;;;10.88;2.95;;;;;;;5.30;62.95;99281.44;4993921;28;20042;-80
2021/10/19 05:01:55;;;;;;;10.35;3.25;;;;;;;5.13;63.49;99272.84;4993570;28;20419;-80
2021/10/19 05:04:21;;;;;;;12.95;2.97;;;;;;;5.26;63.56;99279.56;4993377;28;20050;-80
2021/10/19 05:06:47;;;;;;;4.80;2.65;;;;;;;5.34;63.01;99306.91;4993336;28;20050;-82
2021/10/19 05:09:13;;;;;;;6.15;2.42;;;;;;;5.14;63.61;99290.75;4993815;28;20057;-80
2021/10/19 05:11:42;;;;;;;4.35;2.40;;;;;;;5.29;63.54;99303.41;4994322;28;20081;-81
2021/10/19 05:14:08;;;;;;;4.78;2.92;;;;;;;5.24;63.33;99306.16;4994313;28;20077;-81
2021/10/19 05:16:34;;;;;;;3.92;2.33;;;;;;;5.32;63.25;99313.69;4994416;28;20100;-81
2021/10/19 05:19:00;;;;;;;5.40;2.40;;;;;;;5.35;63.88;99324.78;4993663;28;20463;-81
2021/10/19 05:21:27;;;;;;;5.37;2.70;;;;;;;5.21;63.21;99304.81;4993720;28;20045;-81
2021/10/19 05:23:53;;;;;;;3.42;2.38;;;;;;;5.21;62.64;99312.13;4993739;28;20713;-81
2021/10/19 05:26:20;;;;;;;3.13;1.88;;;;;;;5.18;63.09;99305.34;4992114;28;20046;-80
2021/10/19 05:28:46;;;;;;;8.98;2.53;;;;;;;5.28;62.88;99313.44;4992031;28;20450;-86
2021/10/19 05:31:12;;;;;;;4.93;2.13;;;;;;;5.17;62.66;99303.75;4993420;28;20480;-81
2021/10/19 05:33:38;;;;;;;7.90;2.25;;;;;;;5.19;62.81;99329.44;4993793;28;20074;-81
2021/10/19 05:36:06;;;;;;;3.35;1.80;;;;;;;5.14;62.85;99328.69;4993025;28;20049;-80
2021/10/19 05:38:33;;;;;;;5.32;1.98;;;;;;;5.12;62.26;99309.97;4992925;28;20089;-80
2021/10/19 05:41:01;;;;;;;5.00;2.38;;;;;;;5.23;61.89;99326.19;4992328;28;20133;-80
2021/10/19 05:43:27;;;;;;;5.40;2.25;;;;;;;5.16;61.31;99318.34;4992850;28;20092;-80
2021/10/19 05:45:54;;;;;;;3.05;1.95;;;;;;;5.07;62.40;99328.16;4993163;28;20503;-80
2021/10/19 05:48:20;;;;;;;12.80;2.40;;;;;;;5.15;62.66;99330.28;4993042;28;20518;-80
2021/10/19 05:50:47;;;;;;;5.47;2.45;;;;;;;5.21;61.44;99337.31;4993101;28;20053;-80
2021/10/19 05:53:14;;;;;;;8.35;2.35;;;;;;;5.25;62.17;99335.66;4992916;28;20518;-81
2021/10/19 05:55:41;;;;;;;2.50;2.00;;;;;;;5.27;61.22;99344.34;4992550;28;20586;-81
2021/10/19 05:58:07;;;;;;;6.47;2.38;;;;;;;5.38;61.12;99354.03;4993982;28;20435;-83
2021/10/19 06:00:34;;;;;;;4.03;2.00;;;;;;;5.42;61.53;99340.75;4992647;28;20034;-85
2021/10/19 06:03:00;;;;;;;5.45;2.00;;;;;;;5.37;61.05;99352.44;4993118;28;20048;-80
2021/10/19 06:05:26;;;;;;;5.40;2.33;;;;;;;5.41;61.11;99341.84;4993336;28;20035;-81
2021/10/19 06:07:52;;;;;;;8.23;2.78;;;;;;;5.55;61.53;99350.19;4992578;28;20042;-82
2021/10/19 06:10:21;;;;;;;10.23;2.72;;;;;;;5.58;60.98;99365.91;4992394;28;20121;-80
2021/10/19 06:12:48;;;;;;;12.93;2.80;;;;;;;5.59;61.58;99364.78;4992549;28;20034;-82
2021/10/19 06:15:16;;;;;;;14.27;2.92;;;;;;;5.75;63.84;99362.81;4992402;28;20034;-80
2021/10/19 06:17:42;;;;;;;4.78;2.50;;;;;;;5.85;61.02;99355.41;4992384;28;20043;-80
2021/10/19 06:20:11;;;;;;;8.45;3.13;;;;;;;5.85;60.33;99369.00;4992507;28;20072;-80
2021/10/19 06:22:39;;;;;;;12.27;2.88;;;;;;;5.85;60.65;99344.56;4992357;28;20038;-80
2021/10/19 06:25:07;;;;;;;7.07;2.80;;;;;;;5.88;61.22;99356.78;4992664;28;20068;-80
2021/10/19 06:27:33;;;;;;;28.35;4.03;;;;;;;6.05;60.69;99373.50;4992276;28;20066;-80
2021/10/19 06:30:01;;;;;;;7.47;2.92;;;;;;;6.19;60.82;99376.44;4992255;28;20041;-82
2021/10/19 06:32:27;;;;;;;8.13;3.97;;;;;;;6.24;61.18;99364.72;4992589;28;20112;-82
2021/10/19 06:34:53;;;;;;;7.75;2.90;;;;;;;6.20;61.09;99372.59;4992198;28;20065;-81
2021/10/19 06:37:19;;;;;;;15.95;3.22;;;;;;;6.28;60.71;99376.63;5007279;28;20047;-82
2021/10/19 06:39:45;;;;;;;11.40;3.38;;;;;;;6.16;60.35;99377.00;5023082;28;20161;-76
2021/10/19 06:42:11;;;;;;;7.82;2.80;;;;;;;6.15;60.68;99374.53;4978153;28;20137;-76
2021/10/19 06:44:37;;;;;;;11.07;2.92;;;;;;;6.21;61.22;99370.69;4973584;28;20043;-76
2021/10/19 06:47:03;;;;;;;6.25;2.90;;;;;;;6.08;60.85;99361.28;4991625;28;20045;-76
2021/10/19 06:49:29;;;;;;;7.40;2.70;;;;;;;6.06;60.25;99364.28;4992462;28;20117;-76
2021/10/19 06:51:54;;;;;;;8.32;3.13;;;;;;;5.91;59.76;99363.53;4994144;28;20133;-76
2021/10/19 06:54:20;;;;;;;13.13;2.90;;;;;;;5.85;60.62;99360.03;4995915;28;20049;-80
2021/10/19 06:56:46;;;;;;;9.75;2.47;;;;;;;5.96;60.37;99361.66;4996162;28;20043;-80
2021/10/19 06:59:15;;;;;;;26.73;3.53;;;;;;;5.99;59.84;99374.63;4996265;28;20035;-83
2021/10/19 07:01:40;;;;;;;14.60;3.83;;;;;;;6.13;60.22;99377.53;5011344;28;20049;-84
2021/10/19 07:04:06;;;;;;;28.08;3.50;;;;;;;5.96;60.04;99347.25;4995899;28;20520;-80
2021/10/19 07:06:34;;;;;;;9.35;3.10;;;;;;;6.16;60.57;99371.56;4994408;28;20096;-80
2021/10/19 07:09:02;;;;;;;34.72;3.60;;;;;;;6.02;60.87;99376.78;4996083;28;20046;-80
2021/10/19 07:11:30;;;;;;;10.00;2.88;;;;;;;5.98;62.12;99373.00;4994445;28;20049;-82
2021/10/19 07:13:57;;;;;;;5.43;2.78;;;;;;;6.02;62.78;99367.84;4995830;28;20034;-81
2021/10/19 07:16:23;;;;;;;12.20;2.95;;;;;;;6.07;60.42;99359.69;4995607;28;20490;-87
2021/10/19 07:18:49;;;;;;;9.40;2.97;;;;;;;6.35;61.34;99380.63;4995648;28;20034;-85
2021/10/19 07:21:15;;;;;;;14.63;2.97;;;;;;;6.47;62.59;99384.91;4995654;28;20051;-81
2021/10/19 07:23:42;;;;;;;;;;;;;;;6.48;60.53;99381.88;4996043;28;20046;-84
2021/10/19 07:26:08;;;;;;;14.25;2.85;;;;;;;6.36;60.13;99386.88;4995716;28;19928;-80
2021/10/19 07:28:37;;;;;;;10.27;2.67;;;;;;;6.38;58.66;99381.16;4995729;28;20039;-83
2021/10/19 07:31:03;;;;;;;12.55;2.67;;;;;;;6.25;59.08;99382.59;4996854;28;20046;-87
2021/10/19 07:33:29;;;;;;;9.45;2.42;;;;;;;6.26;58.58;99376.91;4996245;28;20038;-86
2021/10/19 07:35:55;;;;;;;18.05;4.22;;;;;;;6.24;58.58;99359.28;4996768;28;20093;-84
2021/10/19 07:38:21;;;;;;;13.20;3.00;;;;;;;6.49;58.92;99393.53;4997296;28;20042;-80
2021/10/19 07:40:47;;;;;;;26.13;4.55;;;;;;;6.39;57.91;99391.75;4995736;28;20518;-82
2021/10/19 07:43:14;;;;;;;8.07;2.67;;;;;;;6.39;58.22;99378.19;4995355;28;20038;-80
2021/10/19 07:45:42;;;;;;;9.30;2.92;;;;;;;6.47;58.03;99393.84;5013303;28;20103;-80
2021/10/19 07:48:09;;;;;;;6.80;2.88;;;;;;;5.85;58.46;99333.72;5002852;28;20044;-85
2021/10/19 07:50:35;;;;;;;7.85;3.47;;;;;;;6.15;58.16;99375.34;4995145;28;20137;-80
2021/10/19 07:53:01;;;;;;;6.32;2.50;;;;;;;6.22;58.38;99400.25;4994986;28;20042;-81
2021/10/19 07:55:29;;;;;;;12.70;2.90;;;;;;;6.33;57.85;99390.16;4994914;28;20058;-80
2021/10/19 07:57:57;;;;;;;6.80;2.33;;;;;;;6.39;58.06;99393.63;4995035;28;20046;-87
2021/10/19 08:00:25;;;;;;;10.43;2.20;;;;;;;6.68;57.08;99402.63;4994944;28;20038;-80
2021/10/19 08:02:52;;;;;;;8.48;2.30;;;;;;;6.64;57.17;99404.28;4994104;28;20046;-80
2021/10/19 08:05:18;;;;;;;10.80;2.63;;;;;;;6.66;57.59;99404.03;4994767;28;20081;-80
2021/10/19 08:07:49;;;;;;;38.20;9.50;;;;;;;6.68;56.49;99401.81;4995080;28;20408;-80
2021/10/19 08:10:22;;;;;;;4.40;2.17;;;;;;;6.50;55.97;99406.06;4994960;28;20039;-79
2021/10/19 08:12:50;;;;;;;10.35;2.30;;;;;;;6.45;57.25;99395.22;4994902;28;20043;-80
2021/10/19 08:15:17;;;;;;;3.85;2.35;;;;;;;6.58;57.05;99419.00;4993799;28;20412;-80
2021/10/19 08:17:45;;;;;;;20.60;3.75;;;;;;;6.55;56.52;99400.56;4995815;28;20415;-80
2021/10/19 08:20:12;;;;;;;5.53;2.63;;;;;;;6.57;57.15;99407.34;4995870;28;20038;-83
2021/10/19 08:22:40;;;;;;;11.07;2.65;;;;;;;6.44;57.07;99396.31;4995732;28;20113;-87
2021/10/19 08:25:08;;;;;;;11.25;2.88;;;;;;;6.60;57.34;99427.69;4994714;28;20504;-87
2021/10/19 08:27:36;;;;;;;9.23;2.80;;;;;;;6.63;56.96;99423.59;4972891;28;20061;-87
2021/10/19 08:30:04;;;;;;;6.93;2.60;;;;;;;6.40;57.40;99414.28;4956948;28;20046;-80
2021/10/19 08:32:30;;;;;;;20.17;4.53;;;;;;;6.53;57.03;99433.44;4972814;28;20449;-80
2021/10/19 08:34:56;;;;;;;18.52;3.10;;;;;;;6.57;56.17;99418.22;4977973;28;20057;-81
2021/10/19 08:37:22;;;;;;;33.85;4.43;;;;;;;6.44;55.66;99404.47;4992048;28;20079;-86
2021/10/19 08:39:48;;;;;;;18.13;2.72;;;;;;;6.53;56.18;99419.88;4991999;28;20077;-80
2021/10/19 08:42:17;;;;;;;6.70;2.28;;;;;;;6.59;55.69;99421.47;4986130;28;20039;-80
2021/10/19 08:44:46;;;;;;;4.72;2.25;;;;;;;6.70;55.52;99426.81;4972549;28;20093;-85
2021/10/19 08:47:13;;;;;;;8.52;2.70;;;;;;;6.70;55.38;99426.81;4972355;28;20754;-82
2021/10/19 08:49:39;;;;;;;16.90;3.10;;;;;;;6.64;54.72;99422.50;4971829;28;20038;-81
2021/10/19 08:52:06;;;;;;;15.02;2.30;;;;;;;6.58;54.44;99427.97;4972088;28;20055;-80
2021/10/19 08:54:32;;;;;;;11.50;2.47;;;;;;;6.77;55.43;99436.25;4972232;28;20129;-80
2021/10/19 08:56:59;;;;;;;9.88;2.72;;;;;;;6.59;55.24;99432.31;4971570;28;20050;-87
2021/10/19 08:59:26;;;;;;;14.18;3.00;;;;;;;6.52;55.22;99409.28;4972290;28;20106;-82
2021/10/19 09:01:55;;;;;;;24.60;3.13;;;;;;;6.65;56.28;99424.94;4972753;28;20045;-83
2021/10/19 09:04:29;;;;;;;7.65;2.58;;;;;;;6.42;54.93;99396.59;4978282;28;20054;-81
2021/10/19 09:06:57;;;;;;;6.35;2.20;;;;;;;6.55;54.04;99419.56;4994976;28;20125;-80
2021/10/19 09:09:24;;;;;;;8.80;2.10;;;;;;;6.52;54.56;99437.28;4976334;28;20038;-76
2021/10/19 09:11:56;;;;;;;4.82;1.88;;;;;;;6.59;53.68;99437.75;4993430;28;20491;-79
2021/10/19 09:14:32;;;;;;;12.90;2.20;;;;;;;6.64;53.46;99444.25;4992982;28;20054;-78
2021/10/19 09:17:00;;;;;;;10.25;2.88;;;;;;;6.62;54.25;99443.69;4993492;28;20077;-83
2021/10/19 09:19:28;;;;;;;11.30;2.90;;;;;;;6.83;54.40;99448.69;4993796;28;20207;-78
2021/10/19 09:22:09;;;;;;;4.50;2.00;;;;;;;6.63;53.30;99432.56;4993319;28;20065;-78
2021/10/19 09:24:41;;;;;;;7.18;2.00;;;;;;;6.80;54.41;99438.38;4993751;28;20418;-78
2021/10/19 09:27:14;;;;;;;12.68;2.35;;;;;;;6.83;52.31;99445.16;5008221;28;20042;-78
2021/10/19 09:29:43;;;;;;;5.05;1.73;;;;;;;6.74;53.31;99453.09;4993541;28;20046;-78
2021/10/19 09:32:09;;;;;;;10.25;2.03;;;;;;;6.92;54.21;99448.91;4993477;28;20522;-78
2021/10/19 09:34:37;;;;;;;7.68;2.05;;;;;;;7.04;53.03;99449.31;4993592;28;20052;-83
2021/10/19 09:37:06;;;;;;;6.25;2.00;;;;;;;7.17;52.96;99447.03;4994339;28;20104;-84
2021/10/19 09:39:37;;;;;;;4.78;2.00;;;;;;;7.15;52.00;99443.78;4994093;28;20411;-84
2021/10/19 09:42:18;;;;;;;10.13;1.75;;;;;;;7.09;52.19;99448.47;4999490;28;20046;-90
2021/10/19 09:45:02;;;;;;;17.17;2.70;;;;;;;7.12;53.09;99455.22;4999809;28;20035;-75
2021/10/19 09:47:38;;;;;;;4.43;2.03;;;;;;;7.14;52.59;99455.75;4994405;28;20046;-88
2021/10/19 09:50:06;;;;;;;23.55;2.63;;;;;;;7.15;53.61;99460.09;4994492;28;20049;-77
2021/10/19 09:52:37;;;;;;;9.85;2.20;;;;;;;7.11;53.52;99461.75;4994156;28;20038;-76
2021/10/19 09:55:07;;;;;;;6.57;1.92;;;;;;;7.10;53.92;99454.72;4998235;28;20508;-90
2021/10/19 09:57:34;;;;;;;6.82;1.73;;;;;;;6.95;54.15;99456.47;4994343;28;20038;-76
2021/10/19 10:00:03;;;;;;;21.02;2.88;;;;;;;7.14;54.12;99462.00;4993715;28;20038;-75
2021/10/19 10:02:38;;;;;;;7.95;2.30;;;;;;;7.24;53.06;99456.47;4993016;28;20045;-77
2021/10/19 10:05:06;;;;;;;7.85;2.03;;;;;;;7.44;53.60;99462.78;4993260;28;20050;-75
2021/10/19 10:07:35;;;;;;;6.65;2.50;;;;;;;7.32;53.28;99459.66;4992023;28;20411;-75
2021/10/19 10:10:03;;;;;;;9.70;2.00;;;;;;;7.29;53.56;99445.53;4992666;28;20054;-75
2021/10/19 10:12:34;;;;;;;7.43;2.15;;;;;;;7.41;53.10;99455.19;4992871;28;20089;-75
2021/10/19 10:15:01;;;;;;;5.82;2.00;;;;;;;7.37;52.68;99459.59;4992850;28;20500;-75
2021/10/19 10:17:29;;;;;;;6.80;2.15;;;;;;;7.15;52.98;99460.91;4992788;28;20503;-75
2021/10/19 10:20:08;;;;;;;4.53;2.20;;;;;;;7.14;54.71;99456.56;4992994;28;20046;-77
2021/10/19 10:22:43;;;;;;;4.85;2.22;;;;;;;7.25;54.43;99459.97;4993298;28;20042;-75
2021/10/19 10:25:16;;;;;;;7.93;1.98;;;;;;;7.19;54.15;99456.53;4993171;28;20065;-87
2021/10/19 10:27:43;;;;;;;5.68;2.05;;;;;;;6.97;53.29;99458.91;4992266;28;20574;-85
2021/10/19 10:30:23;;;;;;;4.80;2.05;;;;;;;6.77;54.14;99457.97;4992891;28;20496;-89
2021/10/19 10:32:55;;;;;;;13.95;2.00;;;;;;;6.50;54.54;99453.03;4992981;28;20030;-78
2021/10/19 10:35:24;;;;;;;4.10;1.90;;;;;;;6.47;55.03;99445.44;4991942;28;20431;-77
2021/10/19 10:37:57;;;;;;;3.75;1.80;;;;;;;6.68;54.79;99461.59;4993012;28;20054;-85
2021/10/19 10:40:35;;;;;;;9.02;2.35;;;;;;;6.63;54.65;99453.50;4992529;28;20039;-78
2021/10/19 10:43:17;;;;;;;4.93;2.10;;;;;;;6.78;54.21;99442.47;4992600;28;20049;-78
2021/10/19 10:45:44;;;;;;;9.10;2.45;;;;;;;6.96;53.50;99449.13;4992425;28;20411;-78
2021/10/19 10:48:10;;;;;;;6.43;2.80;;;;;;;6.99;53.98;99454.81;4992607;28;20504;-78
2021/10/19 10:50:38;;;;;;;6.88;2.80;;;;;;;7.15;53.59;99450.03;4992354;28;20041;-78
2021/10/19 10:53:09;;;;;;;9.30;2.25;;;;;;;7.26;53.18;99450.75;4992363;28;20474;-78
2021/10/19 10:55:51;;;;;;;3.65;2.00;;;;;;;7.12;53.42;99431.59;4992207;28;20047;-78
2021/10/19 10:58:25;;;;;;;10.35;2.22;;;;;;;7.23;52.02;99451.31;4992499;28;20066;-82
2021/10/19 11:00:54;;;;;;;10.52;1.50;;;;;;;7.03;50.37;99457.75;4991997;28;20050;-77
2021/10/19 11:03:21;;;;;;;6.70;1.60;;;;;;;6.97;51.48;99451.56;4992292;28;20141;-78
2021/10/19 11:06:00;;;;;;;2.63;1.52;;;;;;;7.06;50.49;99449.03;5023546;28;20068;-86
2021/10/19 11:08:31;;;;;;;15.23;2.10;;;;;;;7.03;50.60;99439.53;5007360;28;20073;-86
2021/10/19 11:11:09;;;;;;;11.70;2.17;;;;;;;7.00;50.96;99423.00;5006990;28;20042;-87
2021/10/19 11:13:54;;;;;;;9.18;2.10;;;;;;;7.28;50.82;99459.41;4992315;28;20117;-86
2021/10/19 11:16:44;;;;;;;8.20;2.28;;;;;;;7.36;50.12;99463.44;4992204;28;20089;-86
2021/10/19 11:19:13;;;;;;;10.35;2.60;;;;;;;7.12;50.24;99458.78;4992333;28;20567;-87
2021/10/19 11:21:40;;;;;;;8.25;2.67;;;;;;;7.06;51.01;99459.91;4992266;28;20042;-86
2021/10/19 11:24:06;;;;;;;5.65;2.17;;;;;;;7.05;50.76;99459.09;4992619;28;20043;-86
2021/10/19 11:26:34;;;;;;;4.93;1.63;;;;;;;6.93;49.58;99426.06;5008984;28;20084;-88
2021/10/19 11:29:02;;;;;;;21.02;2.72;;;;;;;7.01;49.30;99438.19;4993217;28;20039;-87
2021/10/19 11:31:32;;;;;;;11.75;2.45;;;;;;;7.24;49.11;99480.94;4992404;28;20500;-88
2021/10/19 11:33:59;;;;;;;5.70;1.58;;;;;;;7.09;49.32;99472.13;5024358;28;20053;-92
2021/10/19 11:36:26;;;;;;;7.97;3.42;;;;;;;7.17;48.67;99464.16;4992261;28;20522;-85
2021/10/19 11:38:55;;;;;;;4.13;1.52;;;;;;;7.12;48.42;99426.16;4992408;28;20065;-84
2021/10/19 11:41:24;;;;;;;18.35;2.08;;;;;;;7.30;47.79;99446.34;4995707;28;20056;-86
2021/10/19 11:43:54;;;;;;;21.10;1.98;;;;;;;7.21;47.52;99420.88;4995748;28;20066;-85
2021/10/19 11:46:24;;;;;;;6.28;1.38;;;;;;;7.07;46.32;99399.81;4995374;28;20045;-85